Time;durP1;ratioP1;P1;durP2;ratioP2;P2;SDS_P1;SDS_P2;PMS_P1;PMS_P2;Temp;Humidity;BMP_temperature;BMP_pressure;BME280_temperature;BME280_humidity;BME280_pressure;Samples;Min_cycle;Max_cycle;Signal;HPM_P1;HPM_P2
2021/12/22 00:00:12;;;;;;;18.58;11.30;;;;;;;0.76;62.30;98713.97;9830327;30;20056;-79
2021/12/22 00:05:45;;;;;;;17.20;11.05;;;;;;;0.88;62.16;98716.72;9843131;30;20048;-78
2021/12/22 00:11:06;;;;;;;;;;;;;;;0.93;62.04;98707.69;9848708;30;20048;-79
2021/12/22 00:16:26;;;;;;;19.95;10.60;;;;;;;0.97;62.17;98719.91;9845204;30;19991;-79
2021/12/22 00:21:47;;;;;;;17.52;10.25;;;;;;;0.93;62.26;98718.66;9836992;30;20055;-79
2021/12/22 00:27:08;;;;;;;22.08;12.32;;;;;;;0.99;62.40;98724.91;9822709;30;20053;-79
2021/12/22 00:32:31;;;;;;;22.33;13.27;;;;;;;1.04;62.09;98726.88;9838221;30;20085;-79
2021/12/22 00:37:52;;;;;;;24.50;14.93;;;;;;;1.05;62.19;98725.59;9857980;30;20051;-79
2021/12/22 00:43:14;;;;;;;23.70;13.65;;;;;;;1.00;61.73;98734.66;9857829;30;20052;-79
2021/12/22 00:48:36;;;;;;;25.23;14.27;;;;;;;0.94;62.80;98736.66;9857916;30;20188;-79
2021/12/22 00:53:57;;;;;;;21.63;13.70;;;;;;;1.00;62.08;98731.91;9845289;30;20058;-79
2021/12/22 00:59:18;;;;;;;21.08;13.63;;;;;;;0.99;62.32;98749.66;9856462;30;20068;-79
2021/12/22 01:04:39;;;;;;;23.42;13.23;;;;;;;0.95;62.33;98749.16;9857490;30;20734;-79
2021/12/22 01:10:01;;;;;;;24.05;14.02;;;;;;;0.99;62.69;98758.66;9856928;30;20090;-79
2021/12/22 01:15:22;;;;;;;21.42;13.15;;;;;;;1.00;62.16;98767.63;9868115;30;20051;-79
2021/12/22 01:26:16;;;;;;;19.67;12.13;;;;;;;1.01;62.15;98767.13;9857505;30;20055;-80
2021/12/22 01:31:40;;;;;;;19.17;11.23;;;;;;;0.94;62.36;98762.16;9856797;30;20495;-79
2021/12/22 01:37:01;;;;;;;19.27;10.95;;;;;;;0.95;62.90;98765.66;9844397;30;20051;-79
2021/12/22 01:42:22;;;;;;;15.77;9.50;;;;;;;0.93;62.24;98768.91;9856718;30;20052;-79
2021/12/22 01:53:22;;;;;;;15.10;8.23;;;;;;;0.92;61.97;98770.16;9861305;30;20052;-80
2021/12/22 01:58:46;;;;;;;13.40;7.75;;;;;;;0.88;61.49;98771.69;9869427;30;20499;-79
2021/12/22 02:04:12;;;;;;;13.27;7.85;;;;;;;0.89;61.43;98764.94;9845132;30;20048;-79
2021/12/22 02:15:12;;;;;;;13.73;7.38;;;;;;;0.96;61.65;98769.88;9858745;30;20047;-79
2021/12/22 02:20:33;;;;;;;12.00;7.72;;;;;;;1.02;62.17;98771.38;9855940;30;20054;-80
2021/12/22 02:25:59;;;;;;;13.43;7.38;;;;;;;1.04;62.01;98765.38;9855879;30;20051;-79
2021/12/22 02:31:21;;;;;;;13.73;7.40;;;;;;;1.04;61.63;98765.38;9857190;30;20047;-79
2021/12/22 02:36:43;;;;;;;15.10;8.05;;;;;;;1.05;61.55;98761.34;9843722;30;20052;-79
2021/12/22 02:42:09;;;;;;;12.60;7.55;;;;;;;1.08;61.47;98758.38;9843970;30;20052;-79
2021/12/22 02:47:30;;;;;;;11.75;6.55;;;;;;;1.04;61.83;98757.88;9855836;30;20056;-80
2021/12/22 02:53:13;;;;;;;13.57;6.60;;;;;;;1.04;61.37;98755.13;9854988;30;20052;-79
2021/12/22 03:04:31;;;;;;;15.63;7.05;;;;;;;1.05;61.16;98764.09;9856061;30;20492;-79
2021/12/22 03:10:00;;;;;;;15.25;8.93;;;;;;;1.04;61.35;98766.13;9857375;30;20480;-79
2021/12/22 03:15:21;;;;;;;16.27;8.57;;;;;;;0.94;60.90;98753.91;9854272;30;20521;-79
2021/12/22 03:20:44;;;;;;;15.30;6.63;;;;;;;0.79;61.53;98754.22;9854113;30;20483;-79
2021/12/22 03:26:05;;;;;;;10.25;5.63;;;;;;;0.62;61.32;98748.00;9842310;30;20056;-79
2021/12/22 03:31:26;;;;;;;15.52;7.32;;;;;;;0.42;61.83;98754.53;9854911;30;20051;-80
2021/12/22 03:36:47;;;;;;;13.85;7.07;;;;;;;0.27;61.93;98757.53;9854191;30;20047;-80
2021/12/22 03:42:09;;;;;;;13.07;7.53;;;;;;;0.16;62.07;98759.53;9855001;30;20052;-79
2021/12/22 03:47:29;;;;;;;13.23;6.72;;;;;;;0.05;62.04;98763.03;9854524;30;20060;-79
2021/12/22 03:52:50;;;;;;;14.85;8.13;;;;;;;-0.07;62.04;98765.03;9841220;30;20059;-79
2021/12/22 03:58:11;;;;;;;14.45;8.15;;;;;;;-0.15;62.38;98763.28;9853374;30;20050;-80
2021/12/22 04:03:34;;;;;;;13.27;8.32;;;;;;;-0.28;62.42;98772.00;9854353;30;20047;-79
2021/12/22 04:08:55;;;;;;;12.68;7.88;;;;;;;-0.44;62.59;98769.94;9845339;30;20056;-80
2021/12/22 04:14:16;;;;;;;14.70;7.28;;;;;;;-0.55;62.57;98773.41;9843795;30;20068;-80
2021/12/22 04:19:37;;;;;;;11.25;6.18;;;;;;;-0.69;62.43;98766.13;9836329;30;20050;-80
2021/12/22 04:24:58;;;;;;;8.38;5.28;;;;;;;-0.82;62.74;98760.38;9851154;30;20385;-79
2021/12/22 04:30:19;;;;;;;10.52;6.03;;;;;;;-0.89;63.09;98765.06;9847114;30;20099;-80
2021/12/22 04:35:40;;;;;;;10.68;6.78;;;;;;;-0.92;63.07;98762.56;9834533;30;20044;-79
2021/12/22 04:41:01;;;;;;;13.68;6.80;;;;;;;-0.98;62.79;98750.81;9840570;30;20063;-79
2021/12/22 04:46:22;;;;;;;11.07;6.10;;;;;;;-1.09;62.96;98759.75;9846420;30;20055;-79
2021/12/22 04:51:50;;;;;;;12.35;7.38;;;;;;;-1.12;63.39;98760.75;9847829;30;20051;-79
2021/12/22 04:57:13;;;;;;;11.70;7.20;;;;;;;-1.20;63.54;98767.91;9842260;30;20040;-81
2021/12/22 05:02:34;;;;;;;11.80;7.25;;;;;;;-1.26;63.81;98773.34;9876035;30;20142;-82
2021/12/22 05:07:55;;;;;;;15.82;9.00;;;;;;;-1.28;63.42;98783.31;9863672;30;20052;-82
2021/12/22 05:13:15;;;;;;;17.65;10.05;;;;;;;-1.35;63.52;98794.72;9851948;30;20048;-82
2021/12/22 05:18:50;;;;;;;18.95;10.45;;;;;;;-1.37;63.71;98791.72;9863370;30;20059;-80
2021/12/22 05:24:11;;;;;;;22.27;13.13;;;;;;;-1.41;64.19;98785.72;9885427;30;20111;-81
2021/12/22 05:29:33;;;;;;;20.02;11.70;;;;;;;-1.51;64.16;98783.19;9887784;30;20079;-80
2021/12/22 05:34:54;;;;;;;20.70;11.80;;;;;;;-1.53;64.34;98782.19;9870301;30;20048;-80
2021/12/22 05:40:19;;;;;;;20.45;12.48;;;;;;;-1.53;64.34;98773.97;9875718;30;20111;-82
2021/12/22 05:45:40;;;;;;;21.83;12.35;;;;;;;-1.55;64.32;98782.63;9887567;30;20048;-81
2021/12/22 05:51:02;;;;;;;23.60;12.98;;;;;;;-1.56;64.34;98791.34;9874506;30;20051;-80
2021/12/22 05:56:23;;;;;;;20.58;12.35;;;;;;;-1.56;64.68;98796.81;9873634;30;20070;-80
2021/12/22 06:01:44;;;;;;;21.80;12.07;;;;;;;-1.62;65.08;98793.31;9861662;30;20131;-81
2021/12/22 06:07:05;;;;;;;19.58;12.48;;;;;;;-1.67;64.69;98797.50;9871996;30;20064;-80
2021/12/22 06:12:26;;;;;;;22.55;11.85;;;;;;;-1.63;64.70;98800.78;9860905;30;20052;-80
2021/12/22 06:17:53;;;;;;;22.65;12.70;;;;;;;-1.67;64.88;98794.75;9872034;30;20056;-80
2021/12/22 06:23:14;;;;;;;20.27;11.93;;;;;;;-1.71;65.03;98788.00;9873313;30;20051;-80
2021/12/22 06:28:35;;;;;;;18.52;11.23;;;;;;;-1.75;65.02;98785.47;9848001;30;20048;-80
2021/12/22 06:33:57;;;;;;;27.67;15.48;;;;;;;-1.79;64.62;98798.66;9856161;30;20085;-81
2021/12/22 06:39:18;;;;;;;30.30;17.98;;;;;;;-1.77;64.53;98796.16;9859565;30;20048;-80
2021/12/22 06:44:40;;;;;;;24.48;14.50;;;;;;;-1.76;65.00;98800.41;9871844;30;20112;-80
2021/12/22 06:50:01;;;;;;;26.92;14.48;;;;;;;-1.74;65.12;98803.41;9872276;30;20055;-80
2021/12/22 06:55:22;;;;;;;21.25;11.93;;;;;;;-1.73;65.38;98816.63;9871158;30;20505;-81
2021/12/22 07:00:47;;;;;;;23.45;12.68;;;;;;;-1.66;65.02;98818.16;9860206;30;20074;-80
2021/12/22 07:06:08;;;;;;;23.60;13.98;;;;;;;-1.57;65.25;98817.97;9859712;30;20051;-81
2021/12/22 07:11:29;;;;;;;25.90;14.40;;;;;;;-1.43;65.09;98837.50;9871122;30;20051;-80
2021/12/22 07:16:50;;;;;;;25.27;14.80;;;;;;;-1.27;65.21;98845.81;9859129;30;20403;-80
2021/12/22 07:22:11;;;;;;;25.40;14.75;;;;;;;-0.91;65.26;98844.31;9855449;30;20055;-81
2021/12/22 07:27:31;;;;;;;29.98;15.70;;;;;;;0.44;63.91;98856.41;9856216;30;20062;-79
2021/12/22 07:32:52;;;;;;;30.20;17.77;;;;;;;1.69;63.92;98867.41;9866536;30;20043;-81
2021/12/22 07:38:27;;;;;;;27.85;16.63;;;;;;;2.81;62.99;98863.16;9846695;30;20043;-80
2021/12/22 07:43:48;;;;;;;23.90;14.25;;;;;;;6.40;57.17;98858.91;9863451;30;20051;-80
2021/12/22 07:49:08;;;;;;;26.20;17.13;;;;;;;9.20;53.57;98845.28;9838787;30;20052;-80
2021/12/22 07:54:29;;;;;;;26.52;19.75;;;;;;;11.53;50.10;98849.84;9847804;30;20056;-80
2021/12/22 07:59:50;;;;;;;23.60;18.20;;;;;;;13.93;46.05;98848.59;9859784;30;20063;-80
2021/12/22 08:05:11;;;;;;;24.10;17.17;;;;;;;14.62;43.02;98846.38;9833162;30;20051;-80
2021/12/22 08:10:33;;;;;;;21.27;16.10;;;;;;;16.30;35.72;98839.84;9842368;30;20055;-80
2021/12/22 08:15:54;;;;;;;23.58;16.27;;;;;;;16.87;37.96;98843.38;9816913;30;20048;-80
2021/12/22 08:21:15;;;;;;;25.48;17.30;;;;;;;18.13;35.26;98845.00;9816205;30;20419;-81
2021/12/22 08:26:35;;;;;;;21.58;14.48;;;;;;;18.60;35.28;98850.38;9836150;30;20060;-80
2021/12/22 08:31:56;;;;;;;18.95;14.48;;;;;;;18.79;31.84;98852.09;9844655;30;20161;-80
2021/12/22 08:42:57;;;;;;;21.42;14.57;;;;;;;20.70;26.19;98875.69;9858650;30;20059;-85
2021/12/22 08:48:17;;;;;;;16.75;12.77;;;;;;;21.16;28.67;98887.66;9844200;30;20060;-84
2021/12/22 08:53:38;;;;;;;17.13;12.57;;;;;;;22.21;25.89;98887.84;9845180;30;20048;-84
2021/12/22 08:58:59;;;;;;;19.08;12.68;;;;;;;22.07;24.97;98878.72;9850917;30;20087;-83
2021/12/22 09:04:21;;;;;;;17.27;12.27;;;;;;;23.26;22.78;98885.41;9838620;30;20055;-84
2021/12/22 09:09:43;;;;;;;15.73;12.07;;;;;;;23.95;20.77;98875.63;9862740;30;20105;-83
2021/12/22 09:15:05;;;;;;;19.17;13.23;;;;;;;23.27;21.42;98891.81;9838848;30;20503;-80
2021/12/22 09:20:28;;;;;;;14.70;12.13;;;;;;;23.96;16.18;98888.50;9850015;30;20052;-80
2021/12/22 09:25:49;;;;;;;14.90;11.60;;;;;;;24.68;16.83;98889.34;9848480;30;20105;-80
2021/12/22 09:31:10;;;;;;;15.95;11.02;;;;;;;24.24;18.26;98900.81;9832591;30;20089;-80
2021/12/22 09:36:30;;;;;;;14.48;10.60;;;;;;;25.18;17.17;98915.06;9813031;30;20158;-81
2021/12/22 09:41:51;;;;;;;14.63;10.43;;;;;;;24.66;16.67;98897.84;9825069;30;20082;-80
2021/12/22 09:47:13;;;;;;;15.52;10.73;;;;;;;24.69;17.25;98885.06;9851216;30;20047;-80
2021/12/22 09:52:35;;;;;;;14.77;10.80;;;;;;;25.80;16.40;98891.75;9848808;30;20502;-81
2021/12/22 09:57:55;;;;;;;14.70;10.13;;;;;;;23.99;15.57;98884.31;9824212;30;20488;-80
2021/12/22 10:03:16;;;;;;;15.25;11.02;;;;;;;24.67;15.76;98862.19;9848303;30;20064;-80
2021/12/22 10:08:40;;;;;;;14.38;10.27;;;;;;;24.71;14.88;98859.47;9835315;30;20484;-80
2021/12/22 10:14:01;;;;;;;17.63;11.02;;;;;;;22.29;16.22;98854.00;9848952;30;20052;-80
2021/12/22 10:19:25;;;;;;;14.00;9.68;;;;;;;23.46;15.98;98856.16;9847971;30;20043;-80
2021/12/22 10:24:46;;;;;;;22.30;13.75;;;;;;;21.75;15.79;98844.75;9847884;30;20406;-80
2021/12/22 10:30:24;;;;;;;11.10;6.13;;;;;;;19.01;18.88;98852.53;9847790;30;20063;-81
2021/12/22 10:35:52;;;;;;;13.93;8.07;;;;;;;21.11;17.16;98843.44;9847276;30;20488;-81
2021/12/22 10:41:13;;;;;;;11.48;7.05;;;;;;;19.48;16.71;98841.47;9834845;30;20048;-82
2021/12/22 10:46:35;;;;;;;11.15;7.18;;;;;;;14.71;21.59;98837.19;9834771;30;20556;-79
2021/12/22 10:58:34;;;;;;;8.23;5.60;;;;;;;11.48;25.77;98817.25;11495622;24;20044;-85
2021/12/22 11:04:03;;;;;;;8.20;4.88;;;;;;;9.85;25.98;98816.84;9864564;30;20052;-87
2021/12/22 11:09:24;;;;;;;9.30;7.22;;;;;;;9.52;29.60;98813.25;9854362;30;20052;-86
2021/12/22 11:14:51;;;;;;;11.98;8.00;;;;;;;8.83;27.83;98803.00;9827264;30;20477;-77
2021/12/22 11:20:12;;;;;;;13.63;8.45;;;;;;;7.94;31.46;98797.50;9812351;30;20048;-77
2021/12/22 11:25:33;;;;;;;12.77;8.27;;;;;;;7.14;33.88;98795.50;9811637;30;20063;-78
2021/12/22 11:30:56;;;;;;;10.77;7.45;;;;;;;7.34;32.50;98796.72;9799606;30;20511;-77
2021/12/22 11:36:17;;;;;;;10.30;6.60;;;;;;;7.34;33.91;98785.59;9785951;30;20055;-77
2021/12/22 11:41:56;;;;;;;8.13;4.28;;;;;;;6.86;34.03;98790.69;9822612;30;20048;-77
2021/12/22 11:47:16;;;;;;;8.27;4.65;;;;;;;6.13;35.93;98771.59;9824093;30;20049;-77
2021/12/22 11:52:42;;;;;;;11.35;5.97;;;;;;;6.19;36.08;98769.44;9809807;30;20115;-77
2021/12/22 11:58:33;;;;;;;9.82;4.78;;;;;;;6.05;36.02;98759.69;9809696;30;20068;-77
2021/12/22 12:04:13;;;;;;;6.93;4.05;;;;;;;5.97;37.41;98748.50;9821796;30;20396;-77
2021/12/22 12:09:35;;;;;;;8.35;4.60;;;;;;;6.11;36.46;98747.19;9810396;30;20048;-78
2021/12/22 12:15:09;;;;;;;5.30;3.60;;;;;;;6.06;35.74;98742.50;9811136;30;20393;-77
2021/12/22 12:21:39;;;;;;;7.07;4.17;;;;;;;5.90;36.57;98732.53;9822777;30;20048;-77
2021/12/22 12:26:52;;;;;;;7.35;4.43;;;;;;;5.74;36.43;98739.94;9824340;30;20063;-77
2021/12/22 12:32:50;;;;;;;8.02;4.38;;;;;;;5.55;36.67;98733.84;9817243;30;20105;-77
2021/12/22 12:38:15;;;;;;;7.18;4.63;;;;;;;5.11;36.89;98730.72;9841440;30;20044;-78
2021/12/22 12:43:42;;;;;;;8.52;5.20;;;;;;;5.43;37.28;98733.34;9840705;30;20454;-77
2021/12/22 12:49:07;;;;;;;8.73;5.13;;;;;;;5.31;37.58;98727.28;9841598;30;20052;-77
2021/12/22 12:55:12;;;;;;;8.18;4.43;;;;;;;5.29;37.12;98718.00;9840618;30;20415;-77
2021/12/22 13:00:32;;;;;;;7.20;4.53;;;;;;;5.29;37.09;98713.22;9816592;30;20067;-77
2021/12/22 13:05:54;;;;;;;10.20;6.32;;;;;;;5.31;38.14;98716.22;9804129;30;20086;-77
2021/12/22 13:11:57;;;;;;;12.15;7.60;;;;;;;5.13;38.55;98717.84;9813682;30;20060;-77
2021/12/22 13:17:18;;;;;;;10.77;5.22;;;;;;;4.96;37.80;98702.84;9839154;30;20052;-77
2021/12/22 13:22:40;;;;;;;11.13;6.38;;;;;;;5.03;38.65;98711.25;9803188;30;20050;-77
2021/12/22 13:28:04;;;;;;;10.15;6.10;;;;;;;4.95;38.51;98713.19;9802052;30;20052;-78
2021/12/22 13:33:32;;;;;;;10.95;7.40;;;;;;;4.79;38.68;98712.22;9815904;30;20468;-78
2021/12/22 13:38:59;;;;;;;12.82;7.45;;;;;;;4.61;39.51;98710.31;9839009;30;20131;-78
2021/12/22 13:44:19;;;;;;;10.13;6.50;;;;;;;4.54;39.07;98700.63;9791172;30;20124;-77
2021/12/22 13:49:40;;;;;;;11.40;6.40;;;;;;;4.37;41.03;98697.41;9802855;30;20391;-78
2021/12/22 13:55:01;;;;;;;10.32;6.55;;;;;;;4.24;39.62;98698.13;9801973;30;20048;-77
2021/12/22 14:00:22;;;;;;;8.82;5.80;;;;;;;4.18;39.34;98689.22;9813894;30;20064;-77
2021/12/22 14:05:42;;;;;;;11.07;6.25;;;;;;;3.93;41.19;98698.91;9812781;30;20102;-77
2021/12/22 14:11:25;;;;;;;11.93;6.20;;;;;;;3.74;40.26;98688.66;9800219;30;20404;-78
2021/12/22 14:16:47;;;;;;;10.73;5.70;;;;;;;3.50;40.98;98680.50;9823806;30;20058;-77
2021/12/22 14:22:10;;;;;;;13.15;6.28;;;;;;;3.24;41.13;98688.63;9763427;30;20128;-77
2021/12/22 14:27:38;;;;;;;10.65;6.97;;;;;;;3.10;41.33;98677.53;9763425;30;20079;-78
2021/12/22 14:33:03;;;;;;;15.10;7.95;;;;;;;3.01;41.76;98688.94;9787123;30;20856;-77
2021/12/22 14:38:32;;;;;;;16.98;8.43;;;;;;;2.93;41.87;98698.31;9775667;30;20048;-77
2021/12/22 14:43:53;;;;;;;19.48;10.40;;;;;;;2.75;43.18;98694.25;9775721;30;20056;-77
2021/12/22 14:49:32;;;;;;;15.07;9.32;;;;;;;2.49;43.20;98690.00;9787173;30;20496;-78
2021/12/22 14:54:54;;;;;;;17.83;10.57;;;;;;;2.22;44.67;98682.78;9773848;30;20052;-78
2021/12/22 15:00:15;;;;;;;21.17;11.88;;;;;;;2.00;45.02;98684.47;9786316;30;20076;-78
2021/12/22 15:05:35;;;;;;;18.25;10.95;;;;;;;1.88;44.46;98676.81;9786179;30;20557;-78
2021/12/22 15:10:57;;;;;;;20.25;11.25;;;;;;;1.67;45.63;98669.00;9773803;30;20059;-78
2021/12/22 15:16:20;;;;;;;19.20;12.35;;;;;;;1.52;47.56;98665.09;9797435;30;20048;-77
2021/12/22 15:21:41;;;;;;;18.45;11.43;;;;;;;1.40;46.98;98667.91;9784643;30;20408;-77
2021/12/22 15:27:02;;;;;;;23.98;11.10;;;;;;;1.38;46.52;98672.44;9772993;30;20053;-77
2021/12/22 15:32:27;;;;;;;21.55;11.82;;;;;;;1.36;45.99;98667.47;9783201;30;20053;-77
2021/12/22 15:37:48;;;;;;;23.30;12.40;;;;;;;1.24;47.32;98659.75;9772895;30;20056;-77
2021/12/22 15:43:09;;;;;;;38.80;20.25;;;;;;;1.11;46.70;98663.84;9773485;30;20075;-77
2021/12/22 15:48:31;;;;;;;27.38;15.77;;;;;;;1.09;47.11;98668.38;9772906;30;20064;-77
2021/12/22 15:53:51;;;;;;;16.00;9.07;;;;;;;1.10;47.25;98669.84;9778866;30;20078;-79
2021/12/22 15:59:12;;;;;;;24.05;11.38;;;;;;;1.10;46.86;98667.09;9796970;30;20063;-78
2021/12/22 16:04:33;;;;;;;20.77;10.50;;;;;;;1.08;47.23;98675.13;9820810;30;20135;-79
2021/12/22 16:09:54;;;;;;;14.98;9.85;;;;;;;1.05;47.09;98665.13;9797167;30;20105;-78
2021/12/22 16:15:15;;;;;;;19.10;10.18;;;;;;;1.03;47.41;98667.63;9809311;30;20044;-79
2021/12/22 16:20:38;;;;;;;20.70;9.85;;;;;;;0.93;47.11;98664.44;9788653;30;20040;-79
2021/12/22 16:25:59;;;;;;;19.20;10.00;;;;;;;0.93;47.35;98658.19;9810077;30;20059;-78
2021/12/22 16:31:20;;;;;;;14.95;10.57;;;;;;;0.87;47.84;98658.22;9809986;30;20106;-79
2021/12/22 16:36:41;;;;;;;20.10;10.52;;;;;;;0.78;47.81;98656.53;9811659;30;20052;-78
2021/12/22 16:42:02;;;;;;;26.30;15.05;;;;;;;0.77;48.90;98643.25;9810196;30;20048;-78
2021/12/22 16:47:24;;;;;;;21.73;11.32;;;;;;;0.73;48.15;98651.78;9802415;30;20516;-77
2021/12/22 16:52:45;;;;;;;23.38;11.30;;;;;;;0.65;49.34;98639.06;9834833;30;20048;-80
2021/12/22 16:58:07;;;;;;;18.40;11.90;;;;;;;0.57;49.05;98638.84;9826083;30;20081;-77
2021/12/22 17:03:29;;;;;;;20.90;12.38;;;;;;;0.48;50.38;98644.63;9809023;30;20052;-79
2021/12/22 17:08:52;;;;;;;21.17;12.50;;;;;;;0.48;50.02;98639.91;9797270;30;20536;-77
2021/12/22 17:14:13;;;;;;;18.50;11.27;;;;;;;0.54;50.05;98634.38;9796903;30;20048;-79
2021/12/22 17:19:34;;;;;;;23.85;12.32;;;;;;;0.53;50.20;98624.63;9801480;30;20052;-76
2021/12/22 17:24:55;;;;;;;20.85;12.18;;;;;;;0.40;50.73;98629.94;9825947;30;20385;-76
2021/12/22 17:30:22;;;;;;;18.95;11.80;;;;;;;0.37;50.92;98639.91;9801445;30;20052;-76
2021/12/22 17:35:42;;;;;;;21.95;12.77;;;;;;;0.36;51.66;98629.44;9777564;30;20072;-76
2021/12/22 17:41:04;;;;;;;21.50;11.88;;;;;;;0.25;51.78;98617.22;9777240;30;20048;-76
2021/12/22 17:46:25;;;;;;;22.15;13.20;;;;;;;0.24;51.87;98618.47;9779299;30;20082;-78
2021/12/22 17:51:47;;;;;;;23.13;13.20;;;;;;;0.15;53.03;98604.28;9778224;30;20049;-78
2021/12/22 17:57:28;;;;;;;22.08;13.68;;;;;;;0.05;52.81;98614.78;9785358;30;20438;-75
2021/12/22 18:02:49;;;;;;;26.90;14.60;;;;;;;-0.03;55.94;98606.31;9763979;30;20413;-75
2021/12/22 18:08:12;;;;;;;24.50;14.43;;;;;;;-0.11;54.14;98616.28;9764010;30;20045;-75
2021/12/22 18:13:33;;;;;;;25.00;15.20;;;;;;;-0.12;54.02;98608.56;9776510;30;20056;-77
2021/12/22 18:18:54;;;;;;;28.25;16.13;;;;;;;-0.18;54.67;98605.09;9765581;30;20059;-79
2021/12/22 18:24:15;;;;;;;27.73;15.48;;;;;;;-0.30;54.58;98602.34;9789105;30;20071;-77
2021/12/22 18:29:36;;;;;;;26.35;15.20;;;;;;;-0.29;54.19;98611.31;9763360;30;20053;-78
2021/12/22 18:34:58;;;;;;;23.83;13.80;;;;;;;-0.34;54.75;98603.88;9775482;30;20056;-77
2021/12/22 18:40:24;;;;;;;23.33;14.05;;;;;;;-0.37;54.84;98599.38;9775853;30;20045;-78
2021/12/22 18:45:46;;;;;;;23.15;14.27;;;;;;;-0.36;54.33;98598.88;9765027;30;20052;-78
2021/12/22 18:51:08;;;;;;;25.00;14.57;;;;;;;-0.37;55.13;98604.88;9764626;30;20056;-79
2021/12/22 18:56:29;;;;;;;24.98;14.52;;;;;;;-0.45;54.68;98596.38;9774462;30;20104;-78
2021/12/22 19:01:50;;;;;;;25.10;14.68;;;;;;;-0.42;55.37;98592.63;9785941;30;20064;-77
2021/12/22 19:07:15;;;;;;;25.05;14.15;;;;;;;-0.43;55.04;98582.91;9810666;30;20063;-77
2021/12/22 19:12:37;;;;;;;22.00;15.23;;;;;;;-0.43;55.62;98580.19;9797868;30;20059;-77
2021/12/22 19:17:59;;;;;;;24.40;14.98;;;;;;;-0.48;55.55;98583.69;9810503;30;20055;-76
2021/12/22 19:23:20;;;;;;;26.23;15.30;;;;;;;-0.52;55.52;98566.72;9798199;30;20094;-77
2021/12/22 19:28:41;;;;;;;26.75;15.48;;;;;;;-0.51;55.52;98570.22;9783647;30;20597;-77
2021/12/22 19:34:02;;;;;;;26.20;15.88;;;;;;;-0.59;55.73;98567.97;9797509;30;20071;-78
2021/12/22 19:39:23;;;;;;;28.58;16.33;;;;;;;-0.64;55.91;98565.97;9794359;30;20540;-76
2021/12/22 19:44:44;;;;;;;27.60;16.65;;;;;;;-0.62;55.52;98560.00;9784306;30;20044;-76
2021/12/22 19:50:09;;;;;;;26.45;15.77;;;;;;;-0.57;56.24;98534.56;9796409;30;20048;-76
2021/12/22 19:55:31;;;;;;;24.50;14.90;;;;;;;-0.69;55.75;98547.53;9821182;30;20048;-78
2021/12/22 20:00:52;;;;;;;27.15;15.75;;;;;;;-0.75;55.60;98543.31;9796091;30;20462;-78
2021/12/22 20:06:14;;;;;;;24.75;16.25;;;;;;;-0.74;56.91;98533.81;9808343;30;20060;-80
2021/12/22 20:11:36;;;;;;;26.45;15.88;;;;;;;-0.72;57.09;98525.84;9796440;30;20040;-78
2021/12/22 20:16:57;;;;;;;27.75;15.63;;;;;;;-0.76;56.86;98522.63;9808135;30;20051;-79
2021/12/22 20:22:18;;;;;;;25.33;15.60;;;;;;;-0.76;56.64;98531.59;9791224;30;20079;-78
2021/12/22 20:27:39;;;;;;;26.42;16.83;;;;;;;-0.87;56.87;98532.34;9760024;30;20110;-78
2021/12/22 20:33:01;;;;;;;27.42;16.77;;;;;;;-0.98;57.70;98532.31;9771834;30;20045;-78
2021/12/22 20:38:22;;;;;;;25.73;16.42;;;;;;;-1.00;56.95;98525.84;9771176;30;20052;-78
2021/12/22 20:43:43;;;;;;;29.88;17.33;;;;;;;-1.09;57.44;98515.88;9758961;30;20056;-79
2021/12/22 20:49:09;;;;;;;28.05;17.60;;;;;;;-1.18;57.67;98513.38;9772241;30;20114;-79
2021/12/22 20:54:30;;;;;;;29.25;17.13;;;;;;;-1.22;57.73;98496.44;9777980;30;20133;-79
2021/12/22 20:59:51;;;;;;;29.05;16.88;;;;;;;-1.19;58.00;98496.19;9789993;30;20060;-79
2021/12/22 21:05:13;;;;;;;34.10;19.17;;;;;;;-1.20;58.18;98488.47;9777351;30;20128;-79
2021/12/22 21:10:34;;;;;;;32.92;18.55;;;;;;;-1.20;57.72;98478.25;9790017;30;20052;-79
2021/12/22 21:15:55;;;;;;;30.48;18.65;;;;;;;-1.18;58.00;98491.44;9789839;30;20049;-79
2021/12/22 21:21:16;;;;;;;31.13;18.02;;;;;;;-1.15;58.94;98490.47;9777172;30;20053;-79
2021/12/22 21:26:40;;;;;;;30.60;17.50;;;;;;;-1.05;58.55;98491.72;9777905;30;20112;-78
2021/12/22 21:32:00;;;;;;;32.08;17.55;;;;;;;-1.04;58.58;98495.94;9790578;30;20063;-79
2021/12/22 21:37:21;;;;;;;41.97;21.55;;;;;;;-1.04;58.40;98490.47;9791336;30;20048;-79
2021/12/22 21:42:42;;;;;;;36.25;20.75;;;;;;;-1.10;58.44;98484.22;9803435;30;20408;-79
2021/12/22 21:48:03;;;;;;;29.23;17.98;;;;;;;-1.11;58.30;98466.31;9781057;30;20149;-79
2021/12/22 21:53:24;;;;;;;37.42;18.73;;;;;;;-1.11;58.04;98473.78;9793212;30;20419;-79
2021/12/22 21:58:45;;;;;;;31.88;18.58;;;;;;;-1.19;58.33;98462.56;9784221;30;20056;-79
2021/12/22 22:04:06;;;;;;;32.75;20.45;;;;;;;-1.15;59.01;98446.63;9812228;30;20088;-79
2021/12/22 22:09:27;;;;;;;38.25;22.20;;;;;;;-1.18;58.54;98426.44;9811965;30;20052;-79
2021/12/22 22:14:48;;;;;;;34.35;20.80;;;;;;;-1.21;58.12;98443.13;9799771;30;20041;-79
2021/12/22 22:20:12;;;;;;;34.53;20.60;;;;;;;-1.30;58.40;98427.69;9811614;30;20051;-79
2021/12/22 22:25:33;;;;;;;36.75;20.00;;;;;;;-1.34;59.32;98418.25;9812138;30;20589;-79
2021/12/22 22:30:54;;;;;;;37.25;20.27;;;;;;;-1.38;59.15;98428.69;9799618;30;20488;-79
2021/12/22 22:36:15;;;;;;;33.42;21.50;;;;;;;-1.38;59.22;98420.47;9796997;30;20060;-79
2021/12/22 22:41:36;;;;;;;32.05;20.27;;;;;;;-1.45;59.54;98421.69;9796528;30;20060;-79
2021/12/22 22:46:57;;;;;;;35.75;19.85;;;;;;;-1.45;58.94;98408.78;9798539;30;20436;-79
2021/12/22 22:52:18;;;;;;;32.97;20.23;;;;;;;-1.43;59.23;98408.28;9810755;30;20044;-79
2021/12/22 22:57:39;;;;;;;34.75;19.55;;;;;;;-1.48;59.22;98404.28;9810232;30;20048;-80
2021/12/22 23:03:00;;;;;;;34.15;20.70;;;;;;;-1.51;59.31;98393.59;9815083;30;20541;-79
2021/12/22 23:08:24;;;;;;;34.60;20.73;;;;;;;-1.52;59.21;98392.84;9789548;30;20106;-79
2021/12/22 23:13:46;;;;;;;30.92;19.30;;;;;;;-1.58;59.56;98389.34;9800973;30;20052;-79
2021/12/22 23:19:09;;;;;;;33.83;20.50;;;;;;;-1.63;59.87;98384.63;9790601;30;20408;-79
2021/12/22 23:24:31;;;;;;;38.15;22.13;;;;;;;-1.63;59.74;98381.88;9800011;30;20409;-79
2021/12/22 23:29:51;;;;;;;35.78;19.98;;;;;;;-1.64;60.10;98363.19;9788904;30;20106;-79
2021/12/22 23:35:17;;;;;;;35.75;20.15;;;;;;;-1.66;60.38;98357.47;9797003;30;20090;-79
2021/12/22 23:40:48;;;;;;;38.87;22.47;;;;;;;-1.63;60.21;98370.94;9809990;30;20105;-79
2021/12/22 23:51:49;;;;;;;34.28;20.52;;;;;;;-1.61;60.00;98338.31;9813543;30;20553;-79
2021/12/22 23:57:10;;;;;;;37.83;22.63;;;;;;;-1.62;60.36;98345.03;9809012;30;20048;-79
